sensor_id;sensor_type;location;lat;lon;timestamp;P1;durP1;ratioP1;P2;durP2;ratioP2
21233;SDS011;10774;42.178;26.578;2022-12-07T00:00:52;39.40;;;23.77;;
21233;SDS011;10774;42.178;26.578;2022-12-07T00:03:18;38.53;;;23.63;;
21233;SDS011;10774;42.178;26.578;2022-12-07T00:05:43;41.03;;;24.42;;
21233;SDS011;10774;42.178;26.578;2022-12-07T00:08:08;36.70;;;23.17;;
21233;SDS011;10774;42.178;26.578;2022-12-07T00:10:34;36.65;;;22.30;;
21233;SDS011;10774;42.178;26.578;2022-12-07T00:12:59;29.30;;;19.98;;
21233;SDS011;10774;42.178;26.578;2022-12-07T00:15:25;30.23;;;20.65;;
21233;SDS011;10774;42.178;26.578;2022-12-07T00:17:51;34.72;;;21.70;;
21233;SDS011;10774;42.178;26.578;2022-12-07T00:20:16;33.90;;;23.15;;
21233;SDS011;10774;42.178;26.578;2022-12-07T00:22:42;33.90;;;22.33;;
21233;SDS011;10774;42.178;26.578;2022-12-07T00:25:07;33.85;;;21.17;;
21233;SDS011;10774;42.178;26.578;2022-12-07T00:27:33;33.40;;;21.23;;
21233;SDS011;10774;42.178;26.578;2022-12-07T00:29:58;34.67;;;21.05;;
21233;SDS011;10774;42.178;26.578;2022-12-07T00:32:24;38.67;;;23.27;;
21233;SDS011;10774;42.178;26.578;2022-12-07T00:34:49;35.58;;;23.10;;
21233;SDS011;10774;42.178;26.578;2022-12-07T00:37:14;36.78;;;23.25;;
21233;SDS011;10774;42.178;26.578;2022-12-07T00:39:40;40.15;;;23.90;;
21233;SDS011;10774;42.178;26.578;2022-12-07T00:42:05;36.92;;;23.35;;
21233;SDS011;10774;42.178;26.578;2022-12-07T00:44:31;37.30;;;23.77;;
21233;SDS011;10774;42.178;26.578;2022-12-07T00:46:56;36.00;;;22.95;;
21233;SDS011;10774;42.178;26.578;2022-12-07T00:49:21;35.78;;;21.27;;
21233;SDS011;10774;42.178;26.578;2022-12-07T00:51:47;34.22;;;21.88;;
21233;SDS011;10774;42.178;26.578;2022-12-07T00:54:13;35.42;;;22.80;;
21233;SDS011;10774;42.178;26.578;2022-12-07T00:56:39;47.42;;;26.80;;
21233;SDS011;10774;42.178;26.578;2022-12-07T00:59:05;47.47;;;26.60;;
21233;SDS011;10774;42.178;26.578;2022-12-07T01:01:31;51.20;;;27.75;;
21233;SDS011;10774;42.178;26.578;2022-12-07T01:03:59;41.63;;;23.08;;
21233;SDS011;10774;42.178;26.578;2022-12-07T01:06:26;36.80;;;22.33;;
21233;SDS011;10774;42.178;26.578;2022-12-07T01:08:52;42.13;;;24.85;;
21233;SDS011;10774;42.178;26.578;2022-12-07T01:11:20;41.03;;;24.20;;
21233;SDS011;10774;42.178;26.578;2022-12-07T01:13:51;37.20;;;26.23;;
21233;SDS011;10774;42.178;26.578;2022-12-07T01:16:18;36.03;;;23.90;;
21233;SDS011;10774;42.178;26.578;2022-12-07T01:18:48;34.83;;;23.75;;
21233;SDS011;10774;42.178;26.578;2022-12-07T01:21:16;35.08;;;22.88;;
21233;SDS011;10774;42.178;26.578;2022-12-07T01:23:45;35.08;;;21.25;;
21233;SDS011;10774;42.178;26.578;2022-12-07T01:26:12;32.50;;;21.20;;
21233;SDS011;10774;42.178;26.578;2022-12-07T01:28:40;32.17;;;19.73;;
21233;SDS011;10774;42.178;26.578;2022-12-07T01:31:09;29.98;;;19.27;;
21233;SDS011;10774;42.178;26.578;2022-12-07T01:33:41;34.67;;;22.05;;
21233;SDS011;10774;42.178;26.578;2022-12-07T01:38:42;32.97;;;20.80;;
21233;SDS011;10774;42.178;26.578;2022-12-07T01:41:08;35.47;;;21.60;;
21233;SDS011;10774;42.178;26.578;2022-12-07T01:43:34;30.63;;;21.13;;
21233;SDS011;10774;42.178;26.578;2022-12-07T01:46:00;36.35;;;19.80;;
21233;SDS011;10774;42.178;26.578;2022-12-07T01:48:31;23.95;;;16.73;;
21233;SDS011;10774;42.178;26.578;2022-12-07T01:51:03;25.63;;;16.38;;
21233;SDS011;10774;42.178;26.578;2022-12-07T01:53:38;28.60;;;16.25;;
21233;SDS011;10774;42.178;26.578;2022-12-07T01:56:07;25.38;;;16.25;;
21233;SDS011;10774;42.178;26.578;2022-12-07T01:58:35;29.20;;;17.55;;
21233;SDS011;10774;42.178;26.578;2022-12-07T02:01:02;25.52;;;16.38;;
21233;SDS011;10774;42.178;26.578;2022-12-07T02:03:32;26.48;;;15.20;;
21233;SDS011;10774;42.178;26.578;2022-12-07T02:06:02;25.23;;;16.30;;
21233;SDS011;10774;42.178;26.578;2022-12-07T02:08:29;25.58;;;16.52;;
21233;SDS011;10774;42.178;26.578;2022-12-07T02:10:55;23.42;;;15.88;;
21233;SDS011;10774;42.178;26.578;2022-12-07T02:13:24;26.50;;;15.20;;
21233;SDS011;10774;42.178;26.578;2022-12-07T02:21:11;25.58;;;15.63;;
21233;SDS011;10774;42.178;26.578;2022-12-07T02:28:55;22.98;;;13.70;;
21233;SDS011;10774;42.178;26.578;2022-12-07T02:31:26;22.40;;;14.70;;
21233;SDS011;10774;42.178;26.578;2022-12-07T02:34:43;20.98;;;14.32;;
21233;SDS011;10774;42.178;26.578;2022-12-07T02:36:50;22.33;;;14.13;;
21233;SDS011;10774;42.178;26.578;2022-12-07T02:39:24;22.35;;;14.70;;
21233;SDS011;10774;42.178;26.578;2022-12-07T02:41:57;23.17;;;15.27;;
21233;SDS011;10774;42.178;26.578;2022-12-07T02:44:26;20.98;;;14.15;;
21233;SDS011;10774;42.178;26.578;2022-12-07T02:47:01;23.85;;;14.50;;
21233;SDS011;10774;42.178;26.578;2022-12-07T02:49:30;64.32;;;32.75;;
21233;SDS011;10774;42.178;26.578;2022-12-07T02:51:57;67.53;;;34.53;;
21233;SDS011;10774;42.178;26.578;2022-12-07T02:54:22;43.10;;;24.23;;
21233;SDS011;10774;42.178;26.578;2022-12-07T03:18:39;26.13;;;15.27;;
21233;SDS011;10774;42.178;26.578;2022-12-07T03:21:09;22.80;;;14.75;;
21233;SDS011;10774;42.178;26.578;2022-12-07T03:23:39;25.27;;;14.38;;
21233;SDS011;10774;42.178;26.578;2022-12-07T03:26:08;29.05;;;16.75;;
21233;SDS011;10774;42.178;26.578;2022-12-07T03:28:38;66.63;;;37.20;;
21233;SDS011;10774;42.178;26.578;2022-12-07T03:31:12;197.00;;;115.20;;
21233;SDS011;10774;42.178;26.578;2022-12-07T03:33:46;192.50;;;109.32;;
21233;SDS011;10774;42.178;26.578;2022-12-07T03:36:23;115.07;;;65.50;;
21233;SDS011;10774;42.178;26.578;2022-12-07T03:41:42;40.05;;;22.00;;
21233;SDS011;10774;42.178;26.578;2022-12-07T03:44:07;33.60;;;21.35;;
21233;SDS011;10774;42.178;26.578;2022-12-07T03:46:37;31.40;;;19.70;;
21233;SDS011;10774;42.178;26.578;2022-12-07T03:49:19;26.27;;;16.80;;
21233;SDS011;10774;42.178;26.578;2022-12-07T03:56:47;30.48;;;19.92;;
21233;SDS011;10774;42.178;26.578;2022-12-07T03:59:14;33.38;;;19.25;;
21233;SDS011;10774;42.178;26.578;2022-12-07T04:01:41;32.10;;;19.50;;
21233;SDS011;10774;42.178;26.578;2022-12-07T04:04:08;28.67;;;18.17;;
21233;SDS011;10774;42.178;26.578;2022-12-07T04:06:33;30.73;;;18.38;;
21233;SDS011;10774;42.178;26.578;2022-12-07T04:08:59;27.15;;;18.00;;
21233;SDS011;10774;42.178;26.578;2022-12-07T04:11:24;28.67;;;17.73;;
21233;SDS011;10774;42.178;26.578;2022-12-07T04:13:50;24.75;;;16.67;;
21233;SDS011;10774;42.178;26.578;2022-12-07T04:16:34;23.90;;;15.95;;
21233;SDS011;10774;42.178;26.578;2022-12-07T04:18:59;39.58;;;25.13;;
21233;SDS011;10774;42.178;26.578;2022-12-07T04:21:25;32.42;;;20.67;;
21233;SDS011;10774;42.178;26.578;2022-12-07T04:23:50;28.17;;;15.93;;
21233;SDS011;10774;42.178;26.578;2022-12-07T04:26:15;25.88;;;14.63;;
21233;SDS011;10774;42.178;26.578;2022-12-07T04:28:41;22.13;;;14.85;;
21233;SDS011;10774;42.178;26.578;2022-12-07T04:31:06;29.27;;;17.00;;
21233;SDS011;10774;42.178;26.578;2022-12-07T04:33:32;30.45;;;17.75;;
21233;SDS011;10774;42.178;26.578;2022-12-07T04:35:57;30.55;;;17.58;;
21233;SDS011;10774;42.178;26.578;2022-12-07T04:38:22;29.33;;;16.92;;
21233;SDS011;10774;42.178;26.578;2022-12-07T04:40:48;27.52;;;16.38;;
21233;SDS011;10774;42.178;26.578;2022-12-07T04:43:13;27.58;;;17.17;;
21233;SDS011;10774;42.178;26.578;2022-12-07T04:45:39;36.95;;;22.45;;
21233;SDS011;10774;42.178;26.578;2022-12-07T04:48:04;28.23;;;18.17;;
21233;SDS011;10774;42.178;26.578;2022-12-07T04:50:30;37.53;;;21.45;;
21233;SDS011;10774;42.178;26.578;2022-12-07T04:52:55;39.72;;;20.85;;
21233;SDS011;10774;42.178;26.578;2022-12-07T04:55:20;36.30;;;22.13;;
21233;SDS011;10774;42.178;26.578;2022-12-07T04:57:46;35.63;;;22.30;;
21233;SDS011;10774;42.178;26.578;2022-12-07T05:00:11;25.40;;;17.33;;
21233;SDS011;10774;42.178;26.578;2022-12-07T05:02:37;29.08;;;17.35;;
21233;SDS011;10774;42.178;26.578;2022-12-07T05:05:02;24.50;;;16.95;;
21233;SDS011;10774;42.178;26.578;2022-12-07T05:07:28;32.67;;;22.13;;
21233;SDS011;10774;42.178;26.578;2022-12-07T05:09:53;32.00;;;23.20;;
21233;SDS011;10774;42.178;26.578;2022-12-07T05:12:18;30.45;;;19.25;;
21233;SDS011;10774;42.178;26.578;2022-12-07T05:14:44;42.50;;;26.00;;
21233;SDS011;10774;42.178;26.578;2022-12-07T05:17:09;52.08;;;30.20;;
21233;SDS011;10774;42.178;26.578;2022-12-07T05:19:36;50.72;;;30.30;;
21233;SDS011;10774;42.178;26.578;2022-12-07T05:22:01;49.50;;;30.40;;
21233;SDS011;10774;42.178;26.578;2022-12-07T05:24:27;44.28;;;27.45;;
21233;SDS011;10774;42.178;26.578;2022-12-07T05:26:52;37.58;;;23.95;;
21233;SDS011;10774;42.178;26.578;2022-12-07T05:29:18;31.38;;;19.50;;
21233;SDS011;10774;42.178;26.578;2022-12-07T05:31:44;35.60;;;21.65;;
21233;SDS011;10774;42.178;26.578;2022-12-07T05:34:09;40.30;;;24.08;;
21233;SDS011;10774;42.178;26.578;2022-12-07T05:36:35;49.00;;;30.80;;
21233;SDS011;10774;42.178;26.578;2022-12-07T05:39:01;54.47;;;33.20;;
21233;SDS011;10774;42.178;26.578;2022-12-07T05:41:26;48.42;;;29.95;;
21233;SDS011;10774;42.178;26.578;2022-12-07T05:44:10;54.33;;;37.40;;
21233;SDS011;10774;42.178;26.578;2022-12-07T05:46:36;38.95;;;27.70;;
21233;SDS011;10774;42.178;26.578;2022-12-07T05:49:02;39.72;;;25.88;;
21233;SDS011;10774;42.178;26.578;2022-12-07T05:51:27;51.00;;;31.80;;
21233;SDS011;10774;42.178;26.578;2022-12-07T05:53:53;44.72;;;30.52;;
21233;SDS011;10774;42.178;26.578;2022-12-07T05:56:18;52.53;;;31.95;;
21233;SDS011;10774;42.178;26.578;2022-12-07T05:58:44;50.17;;;31.65;;
21233;SDS011;10774;42.178;26.578;2022-12-07T06:01:28;39.00;;;23.73;;
21233;SDS011;10774;42.178;26.578;2022-12-07T06:03:53;35.10;;;22.40;;
21233;SDS011;10774;42.178;26.578;2022-12-07T06:06:18;54.65;;;32.08;;
21233;SDS011;10774;42.178;26.578;2022-12-07T06:08:44;104.80;;;69.35;;
21233;SDS011;10774;42.178;26.578;2022-12-07T06:11:10;235.93;;;159.50;;
21233;SDS011;10774;42.178;26.578;2022-12-07T06:13:54;57.22;;;33.05;;
21233;SDS011;10774;42.178;26.578;2022-12-07T06:16:19;44.60;;;29.85;;
21233;SDS011;10774;42.178;26.578;2022-12-07T06:18:45;44.67;;;28.85;;
21233;SDS011;10774;42.178;26.578;2022-12-07T06:21:10;50.83;;;33.85;;
21233;SDS011;10774;42.178;26.578;2022-12-07T06:23:35;59.08;;;38.85;;
21233;SDS011;10774;42.178;26.578;2022-12-07T06:26:01;71.10;;;49.60;;
21233;SDS011;10774;42.178;26.578;2022-12-07T06:28:26;80.20;;;54.33;;
21233;SDS011;10774;42.178;26.578;2022-12-07T06:30:59;80.97;;;58.72;;
21233;SDS011;10774;42.178;26.578;2022-12-07T06:33:25;85.15;;;61.58;;
21233;SDS011;10774;42.178;26.578;2022-12-07T06:35:51;81.80;;;57.40;;
21233;SDS011;10774;42.178;26.578;2022-12-07T06:38:16;87.40;;;58.55;;
21233;SDS011;10774;42.178;26.578;2022-12-07T06:40:42;99.38;;;60.33;;
21233;SDS011;10774;42.178;26.578;2022-12-07T06:43:07;101.90;;;65.35;;
21233;SDS011;10774;42.178;26.578;2022-12-07T06:45:33;93.35;;;56.85;;
21233;SDS011;10774;42.178;26.578;2022-12-07T06:47:59;84.55;;;53.10;;
21233;SDS011;10774;42.178;26.578;2022-12-07T06:50:24;68.68;;;41.47;;
21233;SDS011;10774;42.178;26.578;2022-12-07T06:52:50;47.85;;;29.95;;
21233;SDS011;10774;42.178;26.578;2022-12-07T06:55:16;65.03;;;44.65;;
21233;SDS011;10774;42.178;26.578;2022-12-07T06:57:41;58.33;;;36.78;;
21233;SDS011;10774;42.178;26.578;2022-12-07T07:00:07;44.92;;;29.10;;
21233;SDS011;10774;42.178;26.578;2022-12-07T07:02:33;43.92;;;27.35;;
21233;SDS011;10774;42.178;26.578;2022-12-07T07:04:58;44.05;;;27.30;;
21233;SDS011;10774;42.178;26.578;2022-12-07T07:07:24;43.22;;;27.38;;
21233;SDS011;10774;42.178;26.578;2022-12-07T07:09:49;44.33;;;27.38;;
21233;SDS011;10774;42.178;26.578;2022-12-07T07:12:15;42.78;;;27.48;;
21233;SDS011;10774;42.178;26.578;2022-12-07T07:14:40;42.88;;;26.13;;
21233;SDS011;10774;42.178;26.578;2022-12-07T07:17:06;45.97;;;27.77;;
21233;SDS011;10774;42.178;26.578;2022-12-07T07:19:32;42.03;;;26.48;;
21233;SDS011;10774;42.178;26.578;2022-12-07T07:21:57;45.17;;;27.52;;
21233;SDS011;10774;42.178;26.578;2022-12-07T07:24:23;46.88;;;27.65;;
21233;SDS011;10774;42.178;26.578;2022-12-07T07:26:48;44.17;;;26.70;;
21233;SDS011;10774;42.178;26.578;2022-12-07T07:29:13;46.67;;;27.63;;
21233;SDS011;10774;42.178;26.578;2022-12-07T07:31:39;47.10;;;29.25;;
21233;SDS011;10774;42.178;26.578;2022-12-07T07:34:04;45.17;;;27.08;;
21233;SDS011;10774;42.178;26.578;2022-12-07T07:36:29;42.97;;;26.20;;
21233;SDS011;10774;42.178;26.578;2022-12-07T07:38:55;43.30;;;25.67;;
21233;SDS011;10774;42.178;26.578;2022-12-07T07:41:20;44.90;;;28.08;;
21233;SDS011;10774;42.178;26.578;2022-12-07T07:43:46;47.58;;;31.40;;
21233;SDS011;10774;42.178;26.578;2022-12-07T07:46:11;53.92;;;29.30;;
21233;SDS011;10774;42.178;26.578;2022-12-07T07:48:36;50.28;;;29.70;;
21233;SDS011;10774;42.178;26.578;2022-12-07T07:51:04;46.10;;;28.30;;
21233;SDS011;10774;42.178;26.578;2022-12-07T07:53:31;45.47;;;26.10;;
21233;SDS011;10774;42.178;26.578;2022-12-07T07:55:57;46.25;;;25.80;;
21233;SDS011;10774;42.178;26.578;2022-12-07T07:58:23;46.42;;;25.42;;
21233;SDS011;10774;42.178;26.578;2022-12-07T08:00:48;42.78;;;25.17;;
21233;SDS011;10774;42.178;26.578;2022-12-07T08:03:14;41.58;;;24.02;;
21233;SDS011;10774;42.178;26.578;2022-12-07T08:05:39;42.92;;;23.02;;
21233;SDS011;10774;42.178;26.578;2022-12-07T08:08:05;45.90;;;27.02;;
21233;SDS011;10774;42.178;26.578;2022-12-07T08:10:30;50.72;;;30.38;;
21233;SDS011;10774;42.178;26.578;2022-12-07T08:12:57;61.15;;;41.10;;
21233;SDS011;10774;42.178;26.578;2022-12-07T08:15:39;61.15;;;37.75;;
21233;SDS011;10774;42.178;26.578;2022-12-07T08:18:06;51.22;;;28.40;;
21233;SDS011;10774;42.178;26.578;2022-12-07T08:20:33;46.40;;;30.10;;
21233;SDS011;10774;42.178;26.578;2022-12-07T08:22:59;48.97;;;28.35;;
21233;SDS011;10774;42.178;26.578;2022-12-07T08:25:25;42.85;;;26.50;;
21233;SDS011;10774;42.178;26.578;2022-12-07T08:27:51;46.45;;;26.88;;
21233;SDS011;10774;42.178;26.578;2022-12-07T08:30:17;44.35;;;24.90;;
21233;SDS011;10774;42.178;26.578;2022-12-07T08:35:22;41.47;;;24.45;;
21233;SDS011;10774;42.178;26.578;2022-12-07T08:37:48;42.42;;;26.33;;
21233;SDS011;10774;42.178;26.578;2022-12-07T08:40:14;44.08;;;24.88;;
21233;SDS011;10774;42.178;26.578;2022-12-07T08:42:43;38.67;;;22.65;;
21233;SDS011;10774;42.178;26.578;2022-12-07T08:45:15;39.13;;;23.85;;
21233;SDS011;10774;42.178;26.578;2022-12-07T08:47:50;36.67;;;23.08;;
21233;SDS011;10774;42.178;26.578;2022-12-07T08:50:19;40.78;;;24.27;;
21233;SDS011;10774;42.178;26.578;2022-12-07T08:52:47;39.08;;;24.45;;
21233;SDS011;10774;42.178;26.578;2022-12-07T08:55:16;37.42;;;23.27;;
21233;SDS011;10774;42.178;26.578;2022-12-07T08:57:42;47.05;;;23.13;;
21233;SDS011;10774;42.178;26.578;2022-12-07T09:00:07;36.08;;;19.83;;
21233;SDS011;10774;42.178;26.578;2022-12-07T09:02:34;37.28;;;23.73;;
21233;SDS011;10774;42.178;26.578;2022-12-07T09:04:59;36.78;;;22.23;;
21233;SDS011;10774;42.178;26.578;2022-12-07T09:07:25;35.65;;;21.30;;
21233;SDS011;10774;42.178;26.578;2022-12-07T09:09:51;36.85;;;21.38;;
21233;SDS011;10774;42.178;26.578;2022-12-07T09:12:16;33.53;;;20.73;;
21233;SDS011;10774;42.178;26.578;2022-12-07T09:22:56;32.50;;;19.30;;
21233;SDS011;10774;42.178;26.578;2022-12-07T09:25:21;27.05;;;17.40;;
21233;SDS011;10774;42.178;26.578;2022-12-07T09:27:47;32.78;;;20.23;;
21233;SDS011;10774;42.178;26.578;2022-12-07T09:30:13;29.80;;;19.27;;
21233;SDS011;10774;42.178;26.578;2022-12-07T09:32:38;24.38;;;14.88;;
21233;SDS011;10774;42.178;26.578;2022-12-07T09:35:04;24.42;;;15.75;;
21233;SDS011;10774;42.178;26.578;2022-12-07T09:37:29;27.00;;;16.05;;
21233;SDS011;10774;42.178;26.578;2022-12-07T09:39:56;30.67;;;17.73;;
21233;SDS011;10774;42.178;26.578;2022-12-07T09:42:35;23.42;;;15.23;;
21233;SDS011;10774;42.178;26.578;2022-12-07T09:45:04;22.15;;;15.10;;
21233;SDS011;10774;42.178;26.578;2022-12-07T09:47:32;20.00;;;13.48;;
21233;SDS011;10774;42.178;26.578;2022-12-07T09:50:06;17.13;;;12.00;;
21233;SDS011;10774;42.178;26.578;2022-12-07T09:52:37;21.40;;;14.65;;
21233;SDS011;10774;42.178;26.578;2022-12-07T09:55:07;26.70;;;17.33;;
21233;SDS011;10774;42.178;26.578;2022-12-07T09:57:41;16.70;;;12.82;;
21233;SDS011;10774;42.178;26.578;2022-12-07T10:00:18;18.35;;;11.85;;
21233;SDS011;10774;42.178;26.578;2022-12-07T10:02:50;16.88;;;12.95;;
21233;SDS011;10774;42.178;26.578;2022-12-07T10:05:21;21.55;;;14.32;;
21233;SDS011;10774;42.178;26.578;2022-12-07T10:07:51;20.58;;;13.38;;
21233;SDS011;10774;42.178;26.578;2022-12-07T10:10:30;19.35;;;13.98;;
21233;SDS011;10774;42.178;26.578;2022-12-07T10:13:01;19.58;;;12.63;;
21233;SDS011;10774;42.178;26.578;2022-12-07T10:18:33;22.63;;;14.77;;
21233;SDS011;10774;42.178;26.578;2022-12-07T10:23:35;19.95;;;15.00;;
21233;SDS011;10774;42.178;26.578;2022-12-07T10:26:20;30.25;;;16.83;;
21233;SDS011;10774;42.178;26.578;2022-12-07T10:28:53;19.77;;;13.82;;
21233;SDS011;10774;42.178;26.578;2022-12-07T10:31:20;19.70;;;15.38;;
21233;SDS011;10774;42.178;26.578;2022-12-07T10:36:25;20.83;;;13.02;;
21233;SDS011;10774;42.178;26.578;2022-12-07T10:41:38;18.55;;;13.77;;
21233;SDS011;10774;42.178;26.578;2022-12-07T10:44:22;18.33;;;12.82;;
21233;SDS011;10774;42.178;26.578;2022-12-07T10:55:16;18.70;;;13.40;;
21233;SDS011;10774;42.178;26.578;2022-12-07T10:57:51;30.80;;;20.00;;
21233;SDS011;10774;42.178;26.578;2022-12-07T11:00:54;28.55;;;18.60;;
21233;SDS011;10774;42.178;26.578;2022-12-07T11:17:33;23.65;;;17.23;;
21233;SDS011;10774;42.178;26.578;2022-12-07T11:25:20;19.17;;;14.95;;
21233;SDS011;10774;42.178;26.578;2022-12-07T11:33:56;29.80;;;21.00;;
21233;SDS011;10774;42.178;26.578;2022-12-07T11:36:35;35.63;;;25.48;;
21233;SDS011;10774;42.178;26.578;2022-12-07T11:39:09;21.60;;;16.48;;
21233;SDS011;10774;42.178;26.578;2022-12-07T11:41:41;17.85;;;14.02;;
21233;SDS011;10774;42.178;26.578;2022-12-07T11:51:49;20.67;;;13.20;;
21233;SDS011;10774;42.178;26.578;2022-12-07T11:54:23;24.48;;;15.60;;
21233;SDS011;10774;42.178;26.578;2022-12-07T11:56:54;24.80;;;14.15;;
21233;SDS011;10774;42.178;26.578;2022-12-07T11:59:30;25.65;;;16.55;;
21233;SDS011;10774;42.178;26.578;2022-12-07T12:02:18;22.27;;;15.45;;
21233;SDS011;10774;42.178;26.578;2022-12-07T12:07:18;28.23;;;20.60;;
21233;SDS011;10774;42.178;26.578;2022-12-07T12:09:52;25.98;;;17.33;;
21233;SDS011;10774;42.178;26.578;2022-12-07T12:12:31;20.42;;;14.35;;
21233;SDS011;10774;42.178;26.578;2022-12-07T12:15:18;20.55;;;13.65;;
21233;SDS011;10774;42.178;26.578;2022-12-07T12:20:52;32.67;;;19.35;;
21233;SDS011;10774;42.178;26.578;2022-12-07T12:26:05;43.10;;;30.55;;
21233;SDS011;10774;42.178;26.578;2022-12-07T12:28:38;45.53;;;27.15;;
21233;SDS011;10774;42.178;26.578;2022-12-07T12:34:39;40.45;;;27.95;;
21233;SDS011;10774;42.178;26.578;2022-12-07T12:37:41;42.85;;;29.23;;
21233;SDS011;10774;42.178;26.578;2022-12-07T12:40:53;27.90;;;18.90;;
21233;SDS011;10774;42.178;26.578;2022-12-07T12:42:56;28.65;;;16.52;;
21233;SDS011;10774;42.178;26.578;2022-12-07T12:54:14;29.65;;;17.55;;
21233;SDS011;10774;42.178;26.578;2022-12-07T13:02:16;24.80;;;16.38;;
21233;SDS011;10774;42.178;26.578;2022-12-07T13:15:38;29.55;;;18.40;;
21233;SDS011;10774;42.178;26.578;2022-12-07T13:25:59;30.00;;;22.25;;
21233;SDS011;10774;42.178;26.578;2022-12-07T13:28:26;30.63;;;23.08;;
21233;SDS011;10774;42.178;26.578;2022-12-07T13:31:26;35.22;;;26.05;;
21233;SDS011;10774;42.178;26.578;2022-12-07T13:33:57;44.30;;;33.40;;
21233;SDS011;10774;42.178;26.578;2022-12-07T13:36:24;93.55;;;60.47;;
21233;SDS011;10774;42.178;26.578;2022-12-07T13:39:17;81.25;;;53.08;;
21233;SDS011;10774;42.178;26.578;2022-12-07T13:41:48;104.70;;;67.07;;
21233;SDS011;10774;42.178;26.578;2022-12-07T13:44:17;82.15;;;52.63;;
21233;SDS011;10774;42.178;26.578;2022-12-07T13:47:05;72.00;;;51.20;;
21233;SDS011;10774;42.178;26.578;2022-12-07T13:49:37;58.95;;;37.78;;
21233;SDS011;10774;42.178;26.578;2022-12-07T13:57:31;70.15;;;46.85;;
21233;SDS011;10774;42.178;26.578;2022-12-07T14:00:03;42.75;;;30.40;;
21233;SDS011;10774;42.178;26.578;2022-12-07T14:02:31;62.85;;;40.65;;
21233;SDS011;10774;42.178;26.578;2022-12-07T14:05:06;71.88;;;46.67;;
21233;SDS011;10774;42.178;26.578;2022-12-07T14:07:34;42.88;;;29.70;;
21233;SDS011;10774;42.178;26.578;2022-12-07T14:10:01;39.90;;;28.38;;
21233;SDS011;10774;42.178;26.578;2022-12-07T14:12:30;52.30;;;36.60;;
21233;SDS011;10774;42.178;26.578;2022-12-07T14:14:58;50.67;;;36.13;;
21233;SDS011;10774;42.178;26.578;2022-12-07T14:17:26;84.22;;;58.30;;
21233;SDS011;10774;42.178;26.578;2022-12-07T14:19:53;71.88;;;44.40;;
21233;SDS011;10774;42.178;26.578;2022-12-07T14:22:21;67.93;;;44.63;;
21233;SDS011;10774;42.178;26.578;2022-12-07T14:27:33;90.95;;;64.07;;
21233;SDS011;10774;42.178;26.578;2022-12-07T14:29:59;96.75;;;59.92;;
21233;SDS011;10774;42.178;26.578;2022-12-07T14:32:29;69.10;;;48.50;;
21233;SDS011;10774;42.178;26.578;2022-12-07T14:35:12;101.00;;;65.25;;
21233;SDS011;10774;42.178;26.578;2022-12-07T14:37:40;74.20;;;52.60;;
21233;SDS011;10774;42.178;26.578;2022-12-07T14:40:07;62.50;;;45.63;;
21233;SDS011;10774;42.178;26.578;2022-12-07T14:42:33;57.22;;;42.80;;
21233;SDS011;10774;42.178;26.578;2022-12-07T14:45:00;65.72;;;43.70;;
21233;SDS011;10774;42.178;26.578;2022-12-07T14:47:26;60.40;;;42.28;;
21233;SDS011;10774;42.178;26.578;2022-12-07T14:49:52;65.72;;;45.30;;
21233;SDS011;10774;42.178;26.578;2022-12-07T14:52:21;61.28;;;42.90;;
21233;SDS011;10774;42.178;26.578;2022-12-07T14:54:49;50.75;;;37.70;;
21233;SDS011;10774;42.178;26.578;2022-12-07T14:57:15;38.47;;;31.60;;
21233;SDS011;10774;42.178;26.578;2022-12-07T14:59:40;39.40;;;31.52;;
21233;SDS011;10774;42.178;26.578;2022-12-07T15:02:06;48.88;;;35.08;;
21233;SDS011;10774;42.178;26.578;2022-12-07T15:04:34;57.53;;;41.60;;
21233;SDS011;10774;42.178;26.578;2022-12-07T15:07:01;62.25;;;43.00;;
21233;SDS011;10774;42.178;26.578;2022-12-07T15:09:28;65.45;;;50.47;;
21233;SDS011;10774;42.178;26.578;2022-12-07T15:11:54;73.35;;;53.53;;
21233;SDS011;10774;42.178;26.578;2022-12-07T15:14:19;110.75;;;67.13;;
21233;SDS011;10774;42.178;26.578;2022-12-07T15:16:45;96.18;;;64.32;;
21233;SDS011;10774;42.178;26.578;2022-12-07T15:19:11;76.15;;;52.45;;
21233;SDS011;10774;42.178;26.578;2022-12-07T15:21:39;110.35;;;64.95;;
21233;SDS011;10774;42.178;26.578;2022-12-07T15:24:05;138.07;;;86.35;;
21233;SDS011;10774;42.178;26.578;2022-12-07T15:26:33;137.32;;;83.25;;
21233;SDS011;10774;42.178;26.578;2022-12-07T15:28:58;152.45;;;100.43;;
21233;SDS011;10774;42.178;26.578;2022-12-07T15:31:23;141.07;;;95.18;;
21233;SDS011;10774;42.178;26.578;2022-12-07T15:33:49;127.00;;;88.43;;
21233;SDS011;10774;42.178;26.578;2022-12-07T15:36:21;120.85;;;84.00;;
21233;SDS011;10774;42.178;26.578;2022-12-07T15:38:51;118.72;;;84.55;;
21233;SDS011;10774;42.178;26.578;2022-12-07T15:41:16;113.72;;;85.07;;
21233;SDS011;10774;42.178;26.578;2022-12-07T15:43:42;116.57;;;86.97;;
21233;SDS011;10774;42.178;26.578;2022-12-07T15:46:30;103.00;;;79.63;;
21233;SDS011;10774;42.178;26.578;2022-12-07T15:48:57;100.78;;;77.03;;
21233;SDS011;10774;42.178;26.578;2022-12-07T15:51:22;99.93;;;78.50;;
21233;SDS011;10774;42.178;26.578;2022-12-07T15:53:48;95.63;;;73.60;;
21233;SDS011;10774;42.178;26.578;2022-12-07T15:56:13;92.53;;;65.28;;
21233;SDS011;10774;42.178;26.578;2022-12-07T15:58:39;92.30;;;65.60;;
21233;SDS011;10774;42.178;26.578;2022-12-07T16:01:14;97.95;;;69.65;;
21233;SDS011;10774;42.178;26.578;2022-12-07T16:03:41;97.95;;;74.30;;
21233;SDS011;10774;42.178;26.578;2022-12-07T16:06:07;122.32;;;86.35;;
21233;SDS011;10774;42.178;26.578;2022-12-07T16:08:33;119.22;;;88.93;;
21233;SDS011;10774;42.178;26.578;2022-12-07T16:10:58;202.02;;;150.90;;
21233;SDS011;10774;42.178;26.578;2022-12-07T16:13:24;196.90;;;140.10;;
21233;SDS011;10774;42.178;26.578;2022-12-07T16:15:50;167.25;;;126.43;;
21233;SDS011;10774;42.178;26.578;2022-12-07T16:18:15;130.32;;;97.78;;
21233;SDS011;10774;42.178;26.578;2022-12-07T16:20:40;97.53;;;71.63;;
21233;SDS011;10774;42.178;26.578;2022-12-07T16:23:06;84.18;;;62.78;;
21233;SDS011;10774;42.178;26.578;2022-12-07T16:25:32;86.50;;;60.90;;
21233;SDS011;10774;42.178;26.578;2022-12-07T16:27:58;99.05;;;75.38;;
21233;SDS011;10774;42.178;26.578;2022-12-07T16:30:23;109.28;;;80.68;;
21233;SDS011;10774;42.178;26.578;2022-12-07T16:32:50;119.63;;;90.57;;
21233;SDS011;10774;42.178;26.578;2022-12-07T16:35:16;107.60;;;80.00;;
21233;SDS011;10774;42.178;26.578;2022-12-07T16:37:41;88.95;;;65.05;;
21233;SDS011;10774;42.178;26.578;2022-12-07T16:40:08;71.97;;;56.53;;
21233;SDS011;10774;42.178;26.578;2022-12-07T16:42:34;68.28;;;53.38;;
21233;SDS011;10774;42.178;26.578;2022-12-07T16:45:00;78.60;;;53.33;;
21233;SDS011;10774;42.178;26.578;2022-12-07T16:47:26;147.60;;;104.28;;
21233;SDS011;10774;42.178;26.578;2022-12-07T16:49:51;120.75;;;85.43;;
21233;SDS011;10774;42.178;26.578;2022-12-07T16:52:17;108.85;;;71.82;;
21233;SDS011;10774;42.178;26.578;2022-12-07T16:54:43;135.57;;;87.38;;